createdAt,value
2018-09-23T00:00:55.573Z,5.40
2018-09-23T00:05:03.870Z,5.47
2018-09-23T00:09:12.295Z,6.10
2018-09-23T00:13:20.541Z,6.60
2018-09-23T00:17:28.888Z,7.70
2018-09-23T00:21:37.175Z,6.40
2018-09-23T00:25:45.468Z,6.80
2018-09-23T00:29:53.728Z,6.17
2018-09-23T00:34:01.994Z,5.53
2018-09-23T00:38:10.352Z,5.50
2018-09-23T00:42:18.609Z,6.47
2018-09-23T00:46:26.962Z,6.20
2018-09-23T00:50:35.233Z,6.60
2018-09-23T00:54:44.312Z,7.07
2018-09-23T00:58:52.708Z,7.57
2018-09-23T01:03:00.958Z,7.67
2018-09-23T01:07:09.196Z,7.33
2018-09-23T01:11:17.480Z,10.00
2018-09-23T01:15:26.250Z,11.30
2018-09-23T01:19:34.508Z,13.00
2018-09-23T01:23:42.809Z,12.97
2018-09-23T01:27:51.082Z,12.93
2018-09-23T01:31:59.524Z,14.80
2018-09-23T01:36:07.827Z,14.10
2018-09-23T01:40:16.229Z,15.38
2018-09-23T01:44:24.606Z,14.30
2018-09-23T01:48:32.893Z,14.43
2018-09-23T01:52:41.142Z,15.70
2018-09-23T01:56:49.443Z,16.80
2018-09-23T02:00:57.820Z,17.63
2018-09-23T02:05:06.095Z,13.37
2018-09-23T02:09:14.369Z,13.30
2018-09-23T02:13:22.839Z,14.57
2018-09-23T02:17:31.080Z,13.00
2018-09-23T02:21:39.336Z,14.07
2018-09-23T02:25:47.615Z,13.50
2018-09-23T02:29:56.120Z,14.98
2018-09-23T02:34:04.481Z,11.87
2018-09-23T02:38:12.839Z,12.97
2018-09-23T02:42:21.132Z,14.53
2018-09-23T02:46:29.439Z,16.10
2018-09-23T02:50:37.723Z,13.90
2018-09-23T02:54:46.017Z,14.93
2018-09-23T02:58:54.386Z,15.83
2018-09-23T03:03:02.684Z,16.60
2018-09-23T03:07:11.068Z,17.90
2018-09-23T03:11:19.377Z,16.13
2018-09-23T03:15:27.768Z,15.80
2018-09-23T03:19:36.110Z,12.53
2018-09-23T03:23:44.488Z,13.40
2018-09-23T03:27:52.843Z,12.33
2018-09-23T03:32:01.137Z,14.27
2018-09-23T03:36:09.429Z,16.50
2018-09-23T03:40:17.664Z,14.63
2018-09-23T03:44:26.065Z,12.73
2018-09-23T03:48:34.334Z,13.40
2018-09-23T03:52:42.680Z,12.70
2018-09-23T03:56:52.555Z,11.77
2018-09-23T04:01:00.890Z,11.63
2018-09-23T04:05:09.265Z,11.70
2018-09-23T04:09:17.589Z,12.30
2018-09-23T04:13:26.113Z,11.33
2018-09-23T04:17:34.385Z,11.30
2018-09-23T04:21:42.747Z,10.27
2018-09-23T04:25:51.063Z,10.48
2018-09-23T04:29:59.457Z,9.43
2018-09-23T04:34:07.801Z,9.43
2018-09-23T04:38:16.086Z,9.67
2018-09-23T04:42:24.509Z,8.63
2018-09-23T04:46:32.787Z,8.37
2018-09-23T04:50:41.120Z,8.75
2018-09-23T04:54:49.400Z,7.57
2018-09-23T04:58:57.922Z,7.87
2018-09-23T05:03:06.284Z,7.00
2018-09-23T05:07:14.595Z,7.63
2018-09-23T05:11:23.045Z,7.30
2018-09-23T05:15:31.363Z,8.37
2018-09-23T05:19:39.624Z,7.00
2018-09-23T05:23:47.927Z,8.47
2018-09-23T05:27:56.322Z,8.15
2018-09-23T05:32:04.598Z,10.10
2018-09-23T05:36:14.041Z,9.97
2018-09-23T05:40:22.329Z,10.50
2018-09-23T05:44:30.643Z,11.27
2018-09-23T05:48:38.876Z,11.37
2018-09-23T05:52:47.167Z,12.07
2018-09-23T05:56:55.841Z,11.97
2018-09-23T06:01:04.087Z,13.13
2018-09-23T06:05:12.495Z,11.27
2018-09-23T06:09:20.795Z,11.60
2018-09-23T06:13:29.116Z,12.10
2018-09-23T06:17:37.422Z,11.90
2018-09-23T06:21:45.838Z,11.50
2018-09-23T06:25:54.258Z,10.97
2018-09-23T06:30:02.532Z,10.23
2018-09-23T06:34:10.841Z,12.00
2018-09-23T06:38:19.085Z,10.97
2018-09-23T06:42:27.607Z,11.60
2018-09-23T06:46:35.945Z,10.60
2018-09-23T06:50:44.214Z,9.83
2018-09-23T06:54:52.553Z,11.80
2018-09-23T06:59:00.970Z,11.00
2018-09-23T07:03:09.230Z,10.37
2018-09-23T07:07:17.523Z,10.07
2018-09-23T07:11:25.840Z,9.70
2018-09-23T07:15:34.338Z,9.87
2018-09-23T07:19:42.635Z,10.50
2018-09-23T07:23:51.018Z,9.93
2018-09-23T07:27:59.181Z,11.00
2018-09-23T07:32:07.493Z,11.37
2018-09-23T07:36:15.728Z,11.27
2018-09-23T07:40:24.063Z,11.70
2018-09-23T07:44:33.012Z,11.93
2018-09-23T07:48:41.281Z,9.27
2018-09-23T07:52:49.745Z,10.60
2018-09-23T07:56:58.027Z,8.87
2018-09-23T08:01:06.491Z,10.80
2018-09-23T08:05:14.864Z,10.83
2018-09-23T08:09:23.176Z,10.30
2018-09-23T08:13:31.760Z,11.27
2018-09-23T08:17:39.876Z,14.10
2018-09-23T08:21:48.165Z,14.00
2018-09-23T08:25:56.505Z,14.37
2018-09-23T08:30:05.090Z,17.50
2018-09-23T08:34:13.354Z,16.23
2018-09-23T08:38:21.808Z,19.40
2018-09-23T08:42:30.169Z,17.10
2018-09-23T08:46:38.500Z,19.50
2018-09-23T08:50:46.753Z,18.17
2018-09-23T08:54:55.066Z,19.60
2018-09-23T08:59:03.451Z,21.60
2018-09-23T09:03:11.733Z,21.77
2018-09-23T09:07:20.176Z,20.70
2018-09-23T09:11:28.491Z,18.87
2018-09-23T09:15:36.810Z,21.57
2018-09-23T09:19:45.134Z,20.43
2018-09-23T09:23:53.440Z,20.10
2018-09-23T09:28:01.899Z,21.60
2018-09-23T09:32:10.222Z,21.20
2018-09-23T09:36:18.594Z,22.87
2018-09-23T09:40:26.940Z,20.30
2018-09-23T09:44:35.384Z,22.03
2018-09-23T09:48:43.715Z,20.87
2018-09-23T09:52:52.209Z,18.33
2018-09-23T09:57:00.702Z,17.47
2018-09-23T10:01:09.038Z,18.57
2018-09-23T10:05:17.349Z,15.53
2018-09-23T10:09:25.658Z,18.40
2018-09-23T10:13:34.085Z,15.30
2018-09-23T10:17:42.403Z,17.27
2018-09-23T10:21:50.795Z,16.13
2018-09-23T10:25:59.096Z,15.73
2018-09-23T10:30:08.110Z,15.27
2018-09-23T10:34:16.382Z,15.40
2018-09-23T10:38:24.710Z,14.37
2018-09-23T10:42:33.154Z,14.07
2018-09-23T10:46:41.490Z,12.97
2018-09-23T10:50:49.811Z,10.50
2018-09-23T10:54:58.109Z,10.83
2018-09-23T10:59:06.461Z,9.53
2018-09-23T11:03:14.731Z,9.73
2018-09-23T11:07:23.064Z,9.97
2018-09-23T11:11:31.618Z,11.40
2018-09-23T11:15:39.885Z,12.70
2018-09-23T11:19:48.152Z,10.10
2018-09-23T11:23:56.433Z,12.83
2018-09-23T11:28:04.766Z,10.70
2018-09-23T11:32:13.049Z,10.30
2018-09-23T11:36:21.383Z,11.07
2018-09-23T11:40:30.295Z,10.80
2018-09-23T11:44:38.544Z,9.80
2018-09-23T11:48:46.839Z,12.80
2018-09-23T11:52:55.090Z,12.53
2018-09-23T11:57:03.486Z,14.17
2018-09-23T12:01:11.803Z,15.20
2018-09-23T12:05:20.138Z,18.20
2018-09-23T12:09:28.431Z,17.17
2018-09-23T12:13:36.800Z,14.97
2018-09-23T12:17:45.084Z,15.87
2018-09-23T12:21:53.442Z,15.20
2018-09-23T12:26:01.930Z,14.83
2018-09-23T12:30:10.247Z,13.53
2018-09-23T12:34:18.569Z,13.93
2018-09-23T12:38:26.828Z,13.37
2018-09-23T12:42:35.150Z,12.43
2018-09-23T12:46:43.447Z,13.62
2018-09-23T12:50:52.126Z,12.60
2018-09-23T12:55:00.386Z,12.27
2018-09-23T12:59:08.966Z,10.80
2018-09-23T13:03:17.224Z,11.30
2018-09-23T13:07:25.566Z,10.03
2018-09-23T13:11:33.919Z,9.13
2018-09-23T13:15:42.202Z,8.30
2018-09-23T13:19:50.601Z,8.57
2018-09-23T13:23:58.917Z,7.87
2018-09-23T13:28:07.242Z,8.07
2018-09-23T13:32:15.525Z,8.77
2018-09-23T13:36:24.018Z,9.13
2018-09-23T13:40:32.265Z,8.80
2018-09-23T13:44:40.609Z,8.93
2018-09-23T13:48:48.994Z,9.83
2018-09-23T13:52:57.296Z,10.27
2018-09-23T13:57:05.552Z,9.43
2018-09-23T14:01:13.895Z,9.80
2018-09-23T14:05:22.290Z,10.00
2018-09-23T14:09:30.591Z,9.05
2018-09-23T14:13:38.706Z,9.67
2018-09-23T14:17:46.952Z,8.03
2018-09-23T14:21:55.462Z,8.57
2018-09-23T14:26:03.776Z,8.30
2018-09-23T14:30:12.075Z,9.03
2018-09-23T14:34:20.446Z,8.30
2018-09-23T14:38:28.784Z,7.47
2018-09-23T14:42:37.100Z,8.80
2018-09-23T14:46:45.378Z,7.33
2018-09-23T14:50:53.760Z,7.47
2018-09-23T14:55:02.103Z,8.00
2018-09-23T14:59:10.357Z,8.47
2018-09-23T15:03:19.360Z,9.70
2018-09-23T15:07:27.807Z,8.30
2018-09-23T15:11:36.260Z,8.67
2018-09-23T15:15:44.565Z,10.03
2018-09-23T15:19:52.903Z,7.00
2018-09-23T15:24:01.178Z,7.20
2018-09-23T15:28:09.546Z,6.93
2018-09-23T15:32:17.825Z,7.13
2018-09-23T15:36:26.114Z,5.90
2018-09-23T15:40:34.327Z,6.00
2018-09-23T15:44:42.626Z,6.15
2018-09-23T15:48:51.247Z,5.50
2018-09-23T15:52:59.507Z,6.43
2018-09-23T15:57:07.806Z,6.50
2018-09-23T16:01:16.101Z,5.87
2018-09-23T16:05:24.595Z,4.93
2018-09-23T16:09:32.880Z,4.20
2018-09-23T16:13:41.215Z,6.13
2018-09-23T16:17:49.660Z,6.30
2018-09-23T16:21:57.934Z,6.27
2018-09-23T16:26:06.281Z,7.20
2018-09-23T16:30:14.583Z,6.22
2018-09-23T16:34:23.144Z,5.93
2018-09-23T16:38:31.443Z,4.83
2018-09-23T16:42:39.811Z,5.10
2018-09-23T16:46:48.238Z,4.50
2018-09-23T16:50:56.529Z,4.70
2018-09-23T16:55:04.842Z,5.07
2018-09-23T16:59:13.116Z,4.10
2018-09-23T17:03:21.653Z,5.17
2018-09-23T17:07:30.008Z,4.70
2018-09-23T17:11:38.868Z,4.63
2018-09-23T17:15:47.150Z,4.63
2018-09-23T17:19:56.442Z,5.37
2018-09-23T17:24:04.794Z,4.93
2018-09-23T17:28:13.071Z,4.87
2018-09-23T17:32:21.716Z,5.70
2018-09-23T17:36:30.009Z,5.37
2018-09-23T17:40:38.316Z,4.40
2018-09-23T17:44:46.589Z,5.10
2018-09-23T17:48:54.952Z,4.30
2018-09-23T17:53:03.221Z,4.70
2018-09-23T17:57:11.504Z,4.67
2018-09-23T18:01:19.928Z,3.97
2018-09-23T18:05:28.214Z,4.30
2018-09-23T18:09:36.475Z,4.33
2018-09-23T18:13:44.781Z,3.30
2018-09-23T18:17:53.212Z,3.77
2018-09-23T18:22:01.496Z,2.80
2018-09-23T18:26:09.866Z,3.33
2018-09-23T18:30:18.320Z,3.50
2018-09-23T18:34:26.436Z,3.40
2018-09-23T18:38:34.727Z,3.03
2018-09-23T18:42:43.008Z,3.30
2018-09-23T18:46:51.345Z,3.00
2018-09-23T18:50:59.672Z,2.83
2018-09-23T18:55:15.468Z,3.10
2018-09-23T18:59:23.834Z,3.27
2018-09-23T19:03:32.172Z,3.70
2018-09-23T19:07:40.559Z,3.23
2018-09-23T19:11:48.893Z,2.90
2018-09-23T19:16:02.596Z,3.30
2018-09-23T19:20:11.227Z,3.50
2018-09-23T19:24:20.441Z,3.42
2018-09-23T19:28:28.831Z,3.60
2018-09-23T19:32:37.380Z,4.57
2018-09-23T19:36:45.699Z,3.00
2018-09-23T19:40:54.011Z,3.10
2018-09-23T19:45:02.327Z,3.30
2018-09-23T19:49:10.735Z,4.00
2018-09-23T19:53:19.005Z,3.90
2018-09-23T19:57:27.562Z,4.07
2018-09-23T20:01:36.011Z,4.53
2018-09-23T20:05:44.333Z,3.93
2018-09-23T20:09:52.682Z,3.90
2018-09-23T20:14:01.024Z,4.53
2018-09-23T20:18:09.457Z,4.00
2018-09-23T20:22:17.486Z,6.53
2018-09-23T20:26:25.865Z,5.47
2018-09-23T20:30:34.205Z,5.50
2018-09-23T20:34:42.689Z,6.00
2018-09-23T20:38:50.994Z,6.47
2018-09-23T20:42:59.276Z,5.87
2018-09-23T20:47:07.852Z,6.07
2018-09-23T20:51:16.115Z,6.30
2018-09-23T20:55:24.464Z,6.20
2018-09-23T20:59:32.749Z,6.97
2018-09-23T21:03:41.154Z,5.53
2018-09-23T21:07:49.460Z,6.50
2018-09-23T21:11:57.749Z,6.73
2018-09-23T21:16:06.346Z,6.60
2018-09-23T21:20:14.641Z,8.37
2018-09-23T21:24:22.893Z,7.73
2018-09-23T21:28:31.212Z,7.70
2018-09-23T21:32:39.839Z,8.37
2018-09-23T21:36:48.127Z,9.37
2018-09-23T21:40:56.559Z,8.27
2018-09-23T21:45:05.013Z,9.13
2018-09-23T21:49:13.407Z,8.57
2018-09-23T21:53:21.660Z,8.73
2018-09-23T21:57:29.958Z,8.90
2018-09-23T22:01:38.466Z,8.00
2018-09-23T22:05:46.802Z,9.43
2018-09-23T22:09:55.097Z,9.37
2018-09-23T22:14:03.436Z,7.87
2018-09-23T22:18:11.914Z,8.40
2018-09-23T22:22:20.209Z,8.20
2018-09-23T22:26:28.521Z,8.37
2018-09-23T22:30:36.986Z,6.53
2018-09-23T22:34:45.208Z,7.23
2018-09-23T22:38:53.508Z,6.60
2018-09-23T22:43:01.793Z,6.20
2018-09-23T22:47:10.438Z,6.80
2018-09-23T22:51:18.740Z,5.83
2018-09-23T22:55:27.121Z,6.60
2018-09-23T22:59:35.470Z,5.47
2018-09-23T23:03:43.744Z,5.03
2018-09-23T23:07:51.787Z,5.30
2018-09-23T23:12:00.070Z,4.70
2018-09-23T23:16:08.555Z,4.50
2018-09-23T23:20:16.808Z,5.30
2018-09-23T23:24:25.221Z,5.30
2018-09-23T23:28:33.541Z,4.67
2018-09-23T23:32:41.990Z,5.27
2018-09-23T23:36:50.299Z,5.70
2018-09-23T23:40:58.642Z,5.17
2018-09-23T23:45:07.250Z,5.90
2018-09-23T23:49:15.557Z,6.43
2018-09-23T23:53:23.870Z,6.30
2018-09-23T23:57:32.184Z,6.53
